CheckWX is a tool to help pilots better visualize weather data.  It is not intended as a substitute for an official pre-flight weather briefing.

04:04:20 UTC

EGNM METAR
Leeds Bradford Airport
Leeds, United Kingdom
Current

14 mins ago

EGNM 250350Z 12006KT CAVOK 07/06 Q0996
Observed
Apr-25 @ 03:50 UTC
Wind
  • 120° at 6 KTS
Visibility
10,000+ meters
Flight Rules
VFR
Cloud Levels
  • Clear skies
Temperature
C / 45°F
Dewpoint
C / 43°F
Humidity
93%
Altimeter
29.41" Hg
Pressure
995.92 hPa
Previous

44 mins ago

EGNM 250320Z 14002KT CAVOK 07/06 Q0996
Observed
Apr-25 @ 03:20 UTC
Wind
  • 140° at 2 KTS
Visibility
10,000+ meters
Flight Rules
VFR
Cloud Levels
  • Clear skies
Temperature
C / 45°F
Dewpoint
C / 43°F
Humidity
93%
Altimeter
29.41" Hg
Pressure
995.92 hPa
Previous

1 hour ago

EGNM 250250Z 15004KT CAVOK 06/06 Q0996
Observed
Apr-25 @ 02:50 UTC
Wind
  • 150° at 4 KTS
Visibility
10,000+ meters
Flight Rules
VFR
Cloud Levels
  • Clear skies
Temperature
C / 43°F
Dewpoint
C / 43°F
Humidity
100%
Altimeter
29.41" Hg
Pressure
995.92 hPa